< < Back
Terminal Aerodrome Forecast


Current Version              Previous Versions:   1  2  3  4  5  6  7  8  9  

Terminal Aerodrome Forecast

542
FTUS42 KGSP 230532
TAFAVL
TAF
KAVL 230532Z 2306/2406 33006KT P6SM FEW040
     FM231600 33009KT P6SM FEW250=



Latest METAR

569
SAUS70 KWBC 230500 RRN
MTRAVL
METAR KAVL 230454Z AUTO 34016KT 10SM CLR 07/02 A3015 RMK AO2 SLP204
T00720017 401390067


USA.gov is the U.S. government's official web portal to all federal, state and local government web resources and services.